createdAt,value
2019-02-16T00:00:19.093Z,994.51
2019-02-16T00:01:19.107Z,994.48
2019-02-16T00:02:19.035Z,994.50
2019-02-16T00:03:19.136Z,994.41
2019-02-16T00:04:19.058Z,994.41
2019-02-16T00:05:19.015Z,994.40
2019-02-16T00:06:19.025Z,994.40
2019-02-16T00:07:19.007Z,994.37
2019-02-16T00:08:18.987Z,994.35
2019-02-16T00:09:19.100Z,994.37
2019-02-16T00:10:18.958Z,994.43
2019-02-16T00:11:18.978Z,994.39
2019-02-16T00:12:18.952Z,994.39
2019-02-16T00:13:19.020Z,994.32
2019-02-16T00:14:18.933Z,994.35
2019-02-16T00:15:18.951Z,994.27
2019-02-16T00:16:18.890Z,994.31
2019-02-16T00:17:18.991Z,994.31
2019-02-16T00:18:18.872Z,994.30
2019-02-16T00:19:18.961Z,994.33
2019-02-16T00:20:18.842Z,994.25
2019-02-16T00:21:18.832Z,994.27
2019-02-16T00:22:18.922Z,994.28
2019-02-16T00:23:18.813Z,994.27
2019-02-16T00:24:18.904Z,994.31
2019-02-16T00:25:18.804Z,994.28
2019-02-16T00:26:18.786Z,994.24
2019-02-16T00:27:18.774Z,994.20
2019-02-16T00:28:18.836Z,994.25
2019-02-16T00:29:18.765Z,994.17
2019-02-16T00:30:18.777Z,994.21
2019-02-16T00:31:18.736Z,994.20
2019-02-16T00:32:19.736Z,994.21
2019-02-16T00:33:18.697Z,994.16
2019-02-16T00:34:18.800Z,994.18
2019-02-16T00:35:18.688Z,994.18
2019-02-16T00:36:19.708Z,994.18
2019-02-16T00:37:18.749Z,994.18
2019-02-16T00:38:18.649Z,994.16
2019-02-16T00:39:18.740Z,994.18
2019-02-16T00:40:18.633Z,994.19
2019-02-16T00:41:19.640Z,994.20
2019-02-16T00:42:18.690Z,994.14
2019-02-16T00:43:18.601Z,994.16
2019-02-16T00:44:18.671Z,994.09
2019-02-16T00:45:18.572Z,994.16
2019-02-16T00:46:18.663Z,994.11
2019-02-16T00:47:18.553Z,994.11
2019-02-16T00:48:18.607Z,994.12
2019-02-16T00:49:18.535Z,994.04
2019-02-16T00:50:18.637Z,994.10
2019-02-16T00:51:18.493Z,994.04
2019-02-16T00:52:18.564Z,994.06
2019-02-16T00:53:18.474Z,994.09
2019-02-16T00:54:19.575Z,994.02
2019-02-16T00:55:18.466Z,994.05
2019-02-16T00:56:18.535Z,993.99
2019-02-16T00:57:18.426Z,994.06
2019-02-16T00:58:18.416Z,994.04
2019-02-16T00:59:18.488Z,994.04
2019-02-16T01:00:18.522Z,994.05
2019-02-16T01:01:18.388Z,994.06
2019-02-16T01:02:19.488Z,994.05
2019-02-16T01:03:18.418Z,994.01
2019-02-16T01:04:18.369Z,994.06
2019-02-16T01:05:18.460Z,994.04
2019-02-16T01:06:18.349Z,993.98
2019-02-16T01:07:18.399Z,993.99
2019-02-16T01:08:18.322Z,994.02
2019-02-16T01:09:18.382Z,994.03
2019-02-16T01:10:18.281Z,994.00
2019-02-16T01:11:25.159Z,993.99
2019-02-16T01:12:18.262Z,994.02
2019-02-16T01:13:19.321Z,993.96
2019-02-16T01:14:18.254Z,993.92
2019-02-16T01:15:18.292Z,994.06
2019-02-16T01:16:18.233Z,993.93
2019-02-16T01:17:18.277Z,993.93
2019-02-16T01:18:18.205Z,993.93
2019-02-16T01:19:18.194Z,993.86
2019-02-16T01:20:18.228Z,993.87
2019-02-16T01:21:22.831Z,993.79
2019-02-16T01:22:19.240Z,993.80
2019-02-16T01:23:18.146Z,993.79
2019-02-16T01:24:18.146Z,993.79
2019-02-16T01:25:18.139Z,993.72
2019-02-16T01:26:18.187Z,993.72
2019-02-16T01:27:18.108Z,993.71
2019-02-16T01:28:18.118Z,993.78
2019-02-16T01:29:18.078Z,993.71
2019-02-16T01:30:18.078Z,993.73
2019-02-16T01:31:18.129Z,993.72
2019-02-16T01:32:18.042Z,993.68
2019-02-16T01:33:18.059Z,993.61
2019-02-16T01:34:18.022Z,993.66
2019-02-16T01:35:18.029Z,993.67
2019-02-16T01:36:17.990Z,993.64
2019-02-16T01:37:18.031Z,993.68
2019-02-16T01:38:17.970Z,993.64
2019-02-16T01:39:18.077Z,993.61
2019-02-16T01:40:17.981Z,993.61
2019-02-16T01:41:17.943Z,993.67
2019-02-16T01:42:17.972Z,993.60
2019-02-16T01:43:17.924Z,993.63
2019-02-16T01:44:18.023Z,993.65
2019-02-16T01:45:17.913Z,993.57
2019-02-16T01:46:17.954Z,993.61
2019-02-16T01:47:17.884Z,993.64
2019-02-16T01:48:17.995Z,993.56
2019-02-16T01:49:17.865Z,993.54
2019-02-16T01:50:18.895Z,993.54
2019-02-16T01:51:17.839Z,993.55
2019-02-16T01:52:17.856Z,993.52
2019-02-16T01:53:17.796Z,993.55
2019-02-16T01:54:17.897Z,993.49
2019-02-16T01:55:17.807Z,993.49
2019-02-16T01:56:26.597Z,993.49
2019-02-16T01:57:17.768Z,993.47
2019-02-16T01:58:17.869Z,993.46
2019-02-16T01:59:17.749Z,993.46
2019-02-16T02:00:17.862Z,993.50
2019-02-16T02:01:17.726Z,993.43
2019-02-16T02:02:17.742Z,993.48
2019-02-16T02:03:17.691Z,993.49
2019-02-16T02:04:17.781Z,993.48
2019-02-16T02:05:17.691Z,993.43
2019-02-16T02:06:17.711Z,993.43
2019-02-16T02:07:17.682Z,993.47
2019-02-16T02:08:17.642Z,993.43
2019-02-16T02:09:17.733Z,993.47
2019-02-16T02:10:17.633Z,993.40
2019-02-16T02:11:17.654Z,993.39
2019-02-16T02:12:17.661Z,993.39
2019-02-16T02:13:17.583Z,993.38
2019-02-16T02:14:17.655Z,993.35
2019-02-16T02:15:17.574Z,993.35
2019-02-16T02:16:17.596Z,993.37
2019-02-16T02:17:17.665Z,993.31
2019-02-16T02:18:17.527Z,993.30
2019-02-16T02:19:17.597Z,993.33
2019-02-16T02:20:17.536Z,993.27
2019-02-16T02:21:17.537Z,993.27
2019-02-16T02:22:17.497Z,993.28
2019-02-16T02:23:17.578Z,993.21
2019-02-16T02:24:17.479Z,993.21
2019-02-16T02:25:17.558Z,993.21
2019-02-16T02:26:17.448Z,993.23
2019-02-16T02:27:17.549Z,993.19
2019-02-16T02:28:17.501Z,993.25
2019-02-16T02:29:17.420Z,993.22
2019-02-16T02:30:17.502Z,993.17
2019-02-16T02:31:17.400Z,993.21
2019-02-16T02:32:17.492Z,993.21
2019-02-16T02:33:17.453Z,993.20
2019-02-16T02:34:17.362Z,993.18
2019-02-16T02:35:17.441Z,993.10
2019-02-16T02:36:17.323Z,993.11
2019-02-16T02:37:17.422Z,993.13
2019-02-16T02:38:17.324Z,993.12
2019-02-16T02:39:17.364Z,993.10
2019-02-16T02:40:17.315Z,993.08
2019-02-16T02:41:17.396Z,993.03
2019-02-16T02:42:17.276Z,993.02
2019-02-16T02:43:17.325Z,993.05
2019-02-16T02:44:17.246Z,992.94
2019-02-16T02:45:17.306Z,993.00
2019-02-16T02:46:17.226Z,992.99
2019-02-16T02:47:17.299Z,993.01
2019-02-16T02:48:17.196Z,992.96
2019-02-16T02:49:17.187Z,992.97
2019-02-16T02:50:19.287Z,992.97
2019-02-16T02:51:17.158Z,992.97
2019-02-16T02:52:24.089Z,992.93
2019-02-16T02:53:17.160Z,992.94
2019-02-16T02:54:17.120Z,992.89
2019-02-16T02:55:17.109Z,992.92
2019-02-16T02:56:17.151Z,992.89
2019-02-16T02:57:17.100Z,992.84
2019-02-16T02:58:17.141Z,992.86
2019-02-16T02:59:17.092Z,992.81
2019-02-16T03:00:17.082Z,992.82
2019-02-16T03:01:17.102Z,992.80
2019-02-16T03:02:17.054Z,992.78
2019-02-16T03:03:17.082Z,992.83
2019-02-16T03:04:17.033Z,992.80
2019-02-16T03:05:17.025Z,992.78
2019-02-16T03:06:18.071Z,992.80
2019-02-16T03:07:16.994Z,992.74
2019-02-16T03:08:17.025Z,992.79
2019-02-16T03:09:16.974Z,992.83
2019-02-16T03:10:16.955Z,992.75
2019-02-16T03:11:16.975Z,992.76
2019-02-16T03:12:16.995Z,992.72
2019-02-16T03:13:16.937Z,992.70
2019-02-16T03:14:16.926Z,992.73
2019-02-16T03:15:16.907Z,992.74
2019-02-16T03:16:17.017Z,992.72
2019-02-16T03:17:16.889Z,992.74
2019-02-16T03:18:16.898Z,992.70
2019-02-16T03:19:16.878Z,992.72
2019-02-16T03:20:17.959Z,992.73
2019-02-16T03:21:17.880Z,992.73
2019-02-16T03:22:16.820Z,992.73
2019-02-16T03:23:16.858Z,992.67
2019-02-16T03:24:16.800Z,992.69
2019-02-16T03:25:16.881Z,992.72
2019-02-16T03:26:16.891Z,992.67
2019-02-16T03:27:16.771Z,992.74
2019-02-16T03:28:16.783Z,992.67
2019-02-16T03:29:16.741Z,992.68
2019-02-16T03:30:17.846Z,992.69
2019-02-16T03:31:16.733Z,992.68
2019-02-16T03:32:16.753Z,992.69
2019-02-16T03:33:16.704Z,992.69
2019-02-16T03:34:17.836Z,992.72
2019-02-16T03:35:16.686Z,992.63
2019-02-16T03:36:16.764Z,992.62
2019-02-16T03:37:16.679Z,992.63
2019-02-16T03:38:16.765Z,992.69
2019-02-16T03:39:16.648Z,992.61
2019-02-16T03:40:17.734Z,992.64
2019-02-16T03:41:16.636Z,992.61
2019-02-16T03:42:16.609Z,992.65
2019-02-16T03:43:16.706Z,992.62
2019-02-16T03:44:16.571Z,992.56
2019-02-16T03:45:16.647Z,992.67
2019-02-16T03:46:16.578Z,992.58
2019-02-16T03:47:16.557Z,992.62
2019-02-16T03:48:16.548Z,992.57
2019-02-16T03:49:16.609Z,992.61
2019-02-16T03:50:16.522Z,992.54
2019-02-16T03:51:16.604Z,992.62
2019-02-16T03:52:16.502Z,992.57
2019-02-16T03:53:16.498Z,992.54
2019-02-16T03:54:16.564Z,992.53
2019-02-16T03:55:16.477Z,992.55
2019-02-16T03:56:16.482Z,992.53
2019-02-16T03:57:16.454Z,992.58
2019-02-16T03:58:16.425Z,992.55
2019-02-16T03:59:16.413Z,992.55
2019-02-16T04:00:16.473Z,992.48
2019-02-16T04:01:16.404Z,992.49
2019-02-16T04:02:16.436Z,992.54
2019-02-16T04:03:23.103Z,992.49
2019-02-16T04:04:16.364Z,992.48
2019-02-16T04:05:16.394Z,992.53
2019-02-16T04:06:16.337Z,992.47
2019-02-16T04:07:16.365Z,992.50
2019-02-16T04:08:16.317Z,992.48
2019-02-16T04:09:16.313Z,992.46
2019-02-16T04:10:16.346Z,992.46
2019-02-16T04:11:16.287Z,992.45
2019-02-16T04:12:16.310Z,992.52
2019-02-16T04:13:16.259Z,992.48
2019-02-16T04:14:16.248Z,992.57
2019-02-16T04:15:16.248Z,992.50
2019-02-16T04:16:17.268Z,992.52
2019-02-16T04:17:16.248Z,992.53
2019-02-16T04:18:17.299Z,992.53
2019-02-16T04:19:16.249Z,992.47
2019-02-16T04:20:16.201Z,992.47
2019-02-16T04:21:16.290Z,992.49
2019-02-16T04:22:24.261Z,992.51
2019-02-16T04:23:17.164Z,992.53
2019-02-16T04:24:16.191Z,992.50
2019-02-16T04:25:16.142Z,992.51
2019-02-16T04:26:18.162Z,992.49
2019-02-16T04:27:16.123Z,992.49
2019-02-16T04:28:16.155Z,992.48
2019-02-16T04:29:16.094Z,992.53
2019-02-16T04:30:16.084Z,992.50
2019-02-16T04:31:16.163Z,992.48
2019-02-16T04:32:16.104Z,992.49
2019-02-16T04:33:16.096Z,992.54
2019-02-16T04:34:16.034Z,992.52
2019-02-16T04:35:16.035Z,992.47
2019-02-16T04:36:16.017Z,992.47
2019-02-16T04:37:16.067Z,992.48
2019-02-16T04:38:16.008Z,992.42
2019-02-16T04:39:16.006Z,992.40
2019-02-16T04:40:16.068Z,992.43
2019-02-16T04:41:15.959Z,992.42
2019-02-16T04:42:18.048Z,992.42
2019-02-16T04:43:15.959Z,992.38
2019-02-16T04:44:15.940Z,992.34
2019-02-16T04:45:15.911Z,992.39
2019-02-16T04:46:17.020Z,992.37
2019-02-16T04:47:15.889Z,992.40
2019-02-16T04:48:15.951Z,992.40
2019-02-16T04:49:15.879Z,992.39
2019-02-16T04:50:15.941Z,992.40
2019-02-16T04:51:15.853Z,992.40
2019-02-16T04:52:16.916Z,992.39
2019-02-16T04:53:15.851Z,992.42
2019-02-16T04:54:15.922Z,992.38
2019-02-16T04:55:15.813Z,992.38
2019-02-16T04:56:15.803Z,992.39
2019-02-16T04:57:15.793Z,992.36
2019-02-16T04:58:15.844Z,992.29
2019-02-16T04:59:15.775Z,992.36
2019-02-16T05:00:16.854Z,992.34
2019-02-16T05:01:15.746Z,992.37
2019-02-16T05:02:15.765Z,992.35
2019-02-16T05:03:15.735Z,992.30
2019-02-16T05:04:15.818Z,992.31
2019-02-16T05:05:15.706Z,992.30
2019-02-16T05:06:15.736Z,992.32
2019-02-16T05:07:15.687Z,992.36
2019-02-16T05:08:15.777Z,992.33
2019-02-16T05:09:15.677Z,992.30
2019-02-16T05:10:15.707Z,992.39
2019-02-16T05:11:15.640Z,992.35
2019-02-16T05:12:15.630Z,992.28
2019-02-16T05:13:15.718Z,992.30
2019-02-16T05:14:15.608Z,992.32
2019-02-16T05:15:15.649Z,992.34
2019-02-16T05:16:15.571Z,992.28
2019-02-16T05:17:15.560Z,992.36
2019-02-16T05:18:15.550Z,992.29
2019-02-16T05:19:16.586Z,992.25
2019-02-16T05:20:15.531Z,992.33
2019-02-16T05:21:15.557Z,992.22
2019-02-16T05:22:15.511Z,992.24
2019-02-16T05:23:15.592Z,992.24
2019-02-16T05:24:15.503Z,992.21
2019-02-16T05:25:16.543Z,992.26
2019-02-16T05:26:15.474Z,992.21
2019-02-16T05:27:15.554Z,992.19
2019-02-16T05:28:15.454Z,992.22
2019-02-16T05:29:15.544Z,992.17
2019-02-16T05:30:15.435Z,992.20
2019-02-16T05:31:15.536Z,992.20
2019-02-16T05:32:15.407Z,992.22
2019-02-16T05:33:15.396Z,992.24
2019-02-16T05:34:15.486Z,992.25
2019-02-16T05:35:15.377Z,992.19
2019-02-16T05:36:15.478Z,992.22
2019-02-16T05:37:15.357Z,992.21
2019-02-16T05:38:15.348Z,992.17
2019-02-16T05:39:15.348Z,992.18
2019-02-16T05:40:15.349Z,992.13
2019-02-16T05:41:15.309Z,992.13
2019-02-16T05:42:15.379Z,992.12
2019-02-16T05:43:15.293Z,992.13
2019-02-16T05:44:15.281Z,992.12
2019-02-16T05:45:15.280Z,992.16
2019-02-16T05:46:15.261Z,992.15
2019-02-16T05:47:16.340Z,992.13
2019-02-16T05:48:15.232Z,992.15
2019-02-16T05:49:15.237Z,992.11
2019-02-16T05:50:15.202Z,992.12
2019-02-16T05:51:15.310Z,992.14
2019-02-16T05:52:15.184Z,992.11
2019-02-16T05:53:15.224Z,992.09
2019-02-16T05:54:15.233Z,992.07
2019-02-16T05:55:15.143Z,992.10
2019-02-16T05:56:15.234Z,992.12
2019-02-16T05:57:15.128Z,992.07
2019-02-16T05:58:16.194Z,992.03
2019-02-16T05:59:15.121Z,992.11
2019-02-16T06:00:15.096Z,992.08
2019-02-16T06:01:15.165Z,992.09
2019-02-16T06:02:15.066Z,992.06
2019-02-16T06:03:15.098Z,992.09
2019-02-16T06:04:15.071Z,992.08
2019-02-16T06:05:15.048Z,992.09
2019-02-16T06:06:15.117Z,992.04
2019-02-16T06:07:15.028Z,992.02
2019-02-16T06:08:15.049Z,992.08
2019-02-16T06:09:15.020Z,992.03
2019-02-16T06:10:14.990Z,992.05
2019-02-16T06:11:15.049Z,992.08
2019-02-16T06:12:14.959Z,992.09
2019-02-16T06:13:16.009Z,992.12
2019-02-16T06:14:14.950Z,992.07
2019-02-16T06:15:14.942Z,992.08
2019-02-16T06:16:14.911Z,992.08
2019-02-16T06:17:14.961Z,992.09
2019-02-16T06:18:14.902Z,992.14
2019-02-16T06:19:14.992Z,992.10
2019-02-16T06:20:14.902Z,992.09
2019-02-16T06:21:14.873Z,992.05
2019-02-16T06:22:15.923Z,992.10
2019-02-16T06:23:14.856Z,992.09
2019-02-16T06:24:14.937Z,992.05
2019-02-16T06:25:14.840Z,992.06
2019-02-16T06:26:14.837Z,992.07
2019-02-16T06:27:14.797Z,992.07
2019-02-16T06:28:14.905Z,992.05
2019-02-16T06:29:14.777Z,992.09
2019-02-16T06:30:14.876Z,992.09
2019-02-16T06:31:14.746Z,992.12
2019-02-16T06:32:15.797Z,992.07
2019-02-16T06:33:14.738Z,992.15
2019-02-16T06:34:14.808Z,992.09
2019-02-16T06:35:14.742Z,992.10
2019-02-16T06:36:14.748Z,992.13
2019-02-16T06:37:14.681Z,992.20
2019-02-16T06:38:14.789Z,992.18
2019-02-16T06:39:14.679Z,992.16
2019-02-16T06:40:15.905Z,992.18
2019-02-16T06:41:14.654Z,992.21
2019-02-16T06:42:14.821Z,992.24
2019-02-16T06:43:14.731Z,992.24
2019-02-16T06:44:14.694Z,992.20
2019-02-16T06:45:15.865Z,992.24
2019-02-16T06:46:14.610Z,992.25
2019-02-16T06:47:14.583Z,992.24
2019-02-16T06:48:14.636Z,992.28
2019-02-16T06:49:15.653Z,992.25
2019-02-16T06:50:15.483Z,992.29
2019-02-16T06:51:15.020Z,992.29
2019-02-16T06:52:14.644Z,992.34
2019-02-16T06:53:14.524Z,992.30
2019-02-16T06:54:14.574Z,992.34
2019-02-16T06:55:15.045Z,992.31
2019-02-16T06:56:14.605Z,992.39
2019-02-16T06:57:14.486Z,992.38
2019-02-16T06:58:14.546Z,992.42
2019-02-16T06:59:14.448Z,992.41
2019-02-16T07:00:14.527Z,992.43
2019-02-16T07:01:14.438Z,992.41
2019-02-16T07:02:15.419Z,992.39
2019-02-16T07:03:14.418Z,992.45
2019-02-16T07:04:14.449Z,992.41
2019-02-16T07:05:14.399Z,992.43
2019-02-16T07:06:14.490Z,992.50
2019-02-16T07:07:14.549Z,992.45
2019-02-16T07:08:14.349Z,992.44
2019-02-16T07:09:14.381Z,992.43
2019-02-16T07:10:14.341Z,992.43
2019-02-16T07:11:14.421Z,992.47
2019-02-16T07:12:14.312Z,992.51
2019-02-16T07:13:14.333Z,992.51
2019-02-16T07:14:14.282Z,992.50
2019-02-16T07:15:14.653Z,992.52
2019-02-16T07:16:14.263Z,992.42
2019-02-16T07:17:14.344Z,992.51
2019-02-16T07:18:14.304Z,992.48
2019-02-16T07:19:14.244Z,992.53
2019-02-16T07:20:14.285Z,992.48
2019-02-16T07:21:14.225Z,992.58
2019-02-16T07:22:15.299Z,992.54
2019-02-16T07:23:22.205Z,992.61
2019-02-16T07:24:15.336Z,992.58
2019-02-16T07:25:14.387Z,992.55
2019-02-16T07:26:14.173Z,992.59
2019-02-16T07:27:14.218Z,992.59
2019-02-16T07:28:14.169Z,992.59
2019-02-16T07:29:14.248Z,992.59
2019-02-16T07:30:14.198Z,992.63
2019-02-16T07:31:15.789Z,992.62
2019-02-16T07:32:14.263Z,992.64
2019-02-16T07:33:14.121Z,992.64
2019-02-16T07:34:14.070Z,992.64
2019-02-16T07:35:14.160Z,992.67
2019-02-16T07:36:14.071Z,992.60
2019-02-16T07:37:16.143Z,992.56
2019-02-16T07:38:14.042Z,992.64
2019-02-16T07:39:14.023Z,992.63
2019-02-16T07:40:14.092Z,992.57
2019-02-16T07:41:14.042Z,992.63
2019-02-16T07:42:14.401Z,992.47
2019-02-16T07:43:13.974Z,992.60
2019-02-16T07:44:13.960Z,992.64
2019-02-16T07:45:14.034Z,992.59
2019-02-16T07:46:13.954Z,992.61
2019-02-16T07:47:13.965Z,992.62
2019-02-16T07:48:13.915Z,992.69
2019-02-16T07:49:13.895Z,992.60
2019-02-16T07:50:13.895Z,992.62
2019-02-16T07:51:13.976Z,992.59
2019-02-16T07:52:13.868Z,992.68
2019-02-16T07:53:13.866Z,992.65
2019-02-16T07:54:14.958Z,992.62
2019-02-16T07:55:13.853Z,992.64
2019-02-16T07:56:13.918Z,992.59
2019-02-16T07:57:13.828Z,992.61
2019-02-16T07:58:13.908Z,992.65
2019-02-16T07:59:13.799Z,992.56
2019-02-16T08:00:13.859Z,992.56
2019-02-16T08:01:13.799Z,992.54
2019-02-16T08:02:13.793Z,992.59
2019-02-16T08:03:13.751Z,992.59
2019-02-16T08:04:13.821Z,992.54
2019-02-16T08:05:13.742Z,992.58
2019-02-16T08:06:13.812Z,992.61
2019-02-16T08:07:13.758Z,992.61
2019-02-16T08:08:13.803Z,992.58
2019-02-16T08:09:13.712Z,992.61
2019-02-16T08:10:13.674Z,992.55
2019-02-16T08:11:13.693Z,992.59
2019-02-16T08:12:14.695Z,992.55
2019-02-16T08:13:13.642Z,992.56
2019-02-16T08:14:13.711Z,992.58
2019-02-16T08:15:13.635Z,992.56
2019-02-16T08:16:13.689Z,992.54
2019-02-16T08:17:13.605Z,992.53
2019-02-16T08:18:13.676Z,992.50
2019-02-16T08:19:13.576Z,992.53
2019-02-16T08:20:13.607Z,992.49
2019-02-16T08:21:13.697Z,992.52
2019-02-16T08:22:13.629Z,992.55
2019-02-16T08:23:13.549Z,992.48
2019-02-16T08:24:14.598Z,992.53
2019-02-16T08:25:13.512Z,992.50
2019-02-16T08:26:13.509Z,992.50
2019-02-16T08:27:13.489Z,992.49
2019-02-16T08:28:13.550Z,992.46
2019-02-16T08:29:13.470Z,992.44
2019-02-16T08:30:13.491Z,992.36
2019-02-16T08:31:13.442Z,992.41
2019-02-16T08:32:14.502Z,992.35
2019-02-16T08:33:13.423Z,992.35
2019-02-16T08:34:13.463Z,992.36
2019-02-16T08:35:13.413Z,992.36
2019-02-16T08:36:13.503Z,992.34
2019-02-16T08:37:13.403Z,992.30
2019-02-16T08:38:13.436Z,992.39
2019-02-16T08:39:13.368Z,992.34
2019-02-16T08:40:13.397Z,992.40
2019-02-16T08:41:13.346Z,992.32
2019-02-16T08:42:13.345Z,992.36
2019-02-16T08:43:13.325Z,992.33
2019-02-16T08:44:13.346Z,992.31
2019-02-16T08:45:13.297Z,992.29
2019-02-16T08:46:13.387Z,992.36
2019-02-16T08:47:13.298Z,992.29
2019-02-16T08:48:13.298Z,992.33
2019-02-16T08:49:13.259Z,992.33
2019-02-16T08:50:14.279Z,992.32
2019-02-16T08:51:13.249Z,992.24
2019-02-16T08:52:13.339Z,992.29
2019-02-16T08:53:13.211Z,992.28
2019-02-16T08:54:13.337Z,992.25
2019-02-16T08:55:13.191Z,992.24
2019-02-16T08:56:13.293Z,992.24
2019-02-16T08:57:13.181Z,992.27
2019-02-16T08:58:13.172Z,992.18
2019-02-16T08:59:13.162Z,992.17
2019-02-16T09:00:13.136Z,992.25
2019-02-16T09:01:13.193Z,992.11
2019-02-16T09:02:13.144Z,992.20
2019-02-16T09:03:13.094Z,992.16
2019-02-16T09:04:13.096Z,992.16
2019-02-16T09:05:13.165Z,992.18
2019-02-16T09:06:13.065Z,992.11
2019-02-16T09:07:13.106Z,992.07
2019-02-16T09:08:13.116Z,992.13
2019-02-16T09:09:13.026Z,992.11
2019-02-16T09:10:13.117Z,992.01
2019-02-16T09:11:13.007Z,992.08
2019-02-16T09:12:13.038Z,992.02
2019-02-16T09:13:12.998Z,991.91
2019-02-16T09:14:13.088Z,991.99
2019-02-16T09:15:12.962Z,991.96
2019-02-16T09:16:14.041Z,991.94
2019-02-16T09:17:13.516Z,991.93
2019-02-16T09:18:12.989Z,991.88
2019-02-16T09:19:12.910Z,991.91
2019-02-16T09:20:12.981Z,991.87
2019-02-16T09:21:15.124Z,991.83
2019-02-16T09:22:13.566Z,991.85
2019-02-16T09:23:12.884Z,991.84
2019-02-16T09:24:12.872Z,991.87
2019-02-16T09:25:12.933Z,991.86
2019-02-16T09:26:12.840Z,991.83
2019-02-16T09:27:12.955Z,991.84
2019-02-16T09:28:12.844Z,991.81
2019-02-16T09:29:12.816Z,991.82
2019-02-16T09:30:12.805Z,991.70
2019-02-16T09:31:13.965Z,991.83
2019-02-16T09:32:13.272Z,991.80
2019-02-16T09:33:16.196Z,991.79
2019-02-16T09:34:12.775Z,991.77
2019-02-16T09:35:13.937Z,991.75
2019-02-16T09:36:12.728Z,991.80
2019-02-16T09:37:28.890Z,991.77
2019-02-16T09:38:12.728Z,991.74
2019-02-16T09:39:12.898Z,991.73
2019-02-16T09:40:12.691Z,991.72
2019-02-16T09:41:12.809Z,991.68
2019-02-16T09:42:12.670Z,991.72
2019-02-16T09:43:12.827Z,991.73
2019-02-16T09:44:12.642Z,991.73
2019-02-16T09:45:12.631Z,991.63
2019-02-16T09:46:12.622Z,991.69
2019-02-16T09:47:21.752Z,991.56
2019-02-16T09:48:12.583Z,991.63
2019-02-16T09:49:12.719Z,991.64
2019-02-16T09:50:12.574Z,991.65
2019-02-16T09:51:13.714Z,991.58
2019-02-16T09:52:12.544Z,991.49
2019-02-16T09:53:12.734Z,991.59
2019-02-16T09:54:12.535Z,991.57
2019-02-16T09:55:12.665Z,991.55
2019-02-16T09:56:12.517Z,991.57
2019-02-16T09:57:13.627Z,991.46
2019-02-16T09:58:12.490Z,991.53
2019-02-16T09:59:12.580Z,991.50
2019-02-16T10:00:13.889Z,991.54
2019-02-16T10:01:12.428Z,991.54
2019-02-16T10:02:12.429Z,991.51
2019-02-16T10:03:12.609Z,991.47
2019-02-16T10:04:12.420Z,991.49
2019-02-16T10:05:12.541Z,991.51
2019-02-16T10:06:12.511Z,991.51
2019-02-16T10:07:12.380Z,991.43
2019-02-16T10:08:14.501Z,991.44
2019-02-16T10:09:12.362Z,991.39
2019-02-16T10:10:12.493Z,991.42
2019-02-16T10:11:12.352Z,991.33
2019-02-16T10:12:12.533Z,991.41
2019-02-16T10:13:12.313Z,991.37
2019-02-16T10:14:12.504Z,991.38
2019-02-16T10:15:12.287Z,991.43
2019-02-16T10:16:12.395Z,991.42
2019-02-16T10:17:14.415Z,991.32
2019-02-16T10:18:12.255Z,991.31
2019-02-16T10:19:12.362Z,991.32
2019-02-16T10:20:12.237Z,991.31
2019-02-16T10:21:12.327Z,991.31
2019-02-16T10:22:13.228Z,991.30
2019-02-16T10:23:12.198Z,991.27
2019-02-16T10:24:18.044Z,991.29
2019-02-16T10:25:13.189Z,991.27
2019-02-16T10:26:12.279Z,991.30
2019-02-16T10:27:12.160Z,991.22
2019-02-16T10:28:12.210Z,991.28
2019-02-16T10:29:12.163Z,991.28
2019-02-16T10:30:12.155Z,991.25
2019-02-16T10:31:12.118Z,991.22
2019-02-16T10:32:12.184Z,991.27
2019-02-16T10:33:12.154Z,991.26
2019-02-16T10:34:12.089Z,991.31
2019-02-16T10:35:13.165Z,991.25
2019-02-16T10:36:12.054Z,991.27
2019-02-16T10:37:13.149Z,991.28
2019-02-16T10:38:12.102Z,991.20
2019-02-16T10:39:12.067Z,991.13
2019-02-16T10:40:12.027Z,991.14
2019-02-16T10:41:12.107Z,991.16
2019-02-16T10:42:11.998Z,991.16
2019-02-16T10:43:12.028Z,991.17
2019-02-16T10:44:11.970Z,991.11
2019-02-16T10:45:13.039Z,991.15
2019-02-16T10:46:11.942Z,991.14
2019-02-16T10:47:11.999Z,991.08
2019-02-16T10:48:11.922Z,991.06
2019-02-16T10:49:11.911Z,990.98
2019-02-16T10:50:11.951Z,991.02
2019-02-16T10:51:11.892Z,991.04
2019-02-16T10:52:11.942Z,991.01
2019-02-16T10:53:11.862Z,990.95
2019-02-16T10:54:11.865Z,990.97
2019-02-16T10:55:11.863Z,990.96
2019-02-16T10:56:11.916Z,990.90
2019-02-16T10:57:11.843Z,990.91
2019-02-16T10:58:11.845Z,990.89
2019-02-16T10:59:11.796Z,990.88
2019-02-16T11:00:11.827Z,990.82
2019-02-16T11:01:11.747Z,990.84
2019-02-16T11:02:11.818Z,990.88
2019-02-16T11:03:11.760Z,990.78
2019-02-16T11:04:11.768Z,990.82
2019-02-16T11:05:11.739Z,990.79
2019-02-16T11:06:13.748Z,990.86
2019-02-16T11:07:11.699Z,990.78
2019-02-16T11:08:11.730Z,990.82
2019-02-16T11:09:11.680Z,990.84
2019-02-16T11:10:11.680Z,990.76
2019-02-16T11:11:11.650Z,990.81
2019-02-16T11:12:11.704Z,990.74
2019-02-16T11:13:11.611Z,990.79
2019-02-16T11:14:11.752Z,990.88
2019-02-16T11:15:11.635Z,990.83
2019-02-16T11:16:11.603Z,990.86
2019-02-16T11:17:11.654Z,990.92
2019-02-16T11:18:11.580Z,990.88
2019-02-16T11:19:11.562Z,990.99
2019-02-16T11:20:11.586Z,990.97
2019-02-16T11:21:11.556Z,990.95
2019-02-16T11:22:11.567Z,990.93
2019-02-16T11:23:11.537Z,990.99
2019-02-16T11:24:11.631Z,990.97
2019-02-16T11:25:11.542Z,991.00
2019-02-16T11:26:11.491Z,991.01
2019-02-16T11:27:11.529Z,991.03
2019-02-16T11:28:11.481Z,990.89
2019-02-16T11:29:11.574Z,991.02
2019-02-16T11:30:11.440Z,991.01
2019-02-16T11:31:11.465Z,991.02
2019-02-16T11:32:11.431Z,991.03
2019-02-16T11:33:13.422Z,991.13
2019-02-16T11:34:11.414Z,991.15
2019-02-16T11:35:11.475Z,991.06
2019-02-16T11:36:11.500Z,991.04
2019-02-16T11:37:11.386Z,991.08
2019-02-16T11:38:12.395Z,991.01
2019-02-16T11:39:11.365Z,991.08
2019-02-16T11:40:11.406Z,991.07
2019-02-16T11:41:18.628Z,991.02
2019-02-16T11:42:12.327Z,991.00
2019-02-16T11:43:11.417Z,991.12
2019-02-16T11:44:11.307Z,991.01
2019-02-16T11:45:12.369Z,991.02
2019-02-16T11:46:11.299Z,991.10
2019-02-16T11:47:11.272Z,991.11
2019-02-16T11:48:11.349Z,991.10
2019-02-16T11:49:11.250Z,991.02
2019-02-16T11:50:11.291Z,991.15
2019-02-16T11:51:11.244Z,991.13
2019-02-16T11:52:11.220Z,991.07
2019-02-16T11:53:11.203Z,991.10
2019-02-16T11:54:11.263Z,991.05
2019-02-16T11:55:11.186Z,991.04
2019-02-16T11:56:12.274Z,991.05
2019-02-16T11:57:11.171Z,991.05
2019-02-16T11:58:11.145Z,991.07
2019-02-16T11:59:11.197Z,991.06
2019-02-16T12:00:11.120Z,991.05
2019-02-16T12:01:11.183Z,991.06
2019-02-16T12:02:11.101Z,990.97
2019-02-16T12:03:12.217Z,990.97
2019-02-16T12:04:11.073Z,990.97
2019-02-16T12:05:12.128Z,990.99
2019-02-16T12:06:11.060Z,990.93
2019-02-16T12:07:11.142Z,990.93
2019-02-16T12:08:11.033Z,990.94
2019-02-16T12:09:11.081Z,990.94
2019-02-16T12:10:11.001Z,990.91
2019-02-16T12:11:11.062Z,990.90
2019-02-16T12:12:10.982Z,990.87
2019-02-16T12:13:10.962Z,990.86
2019-02-16T12:14:10.953Z,990.86
2019-02-16T12:15:10.983Z,990.83
2019-02-16T12:16:11.129Z,990.83
2019-02-16T12:17:11.029Z,990.82
2019-02-16T12:18:10.915Z,990.75
2019-02-16T12:19:10.955Z,990.84
2019-02-16T12:20:10.886Z,990.84
2019-02-16T12:21:10.916Z,990.82
2019-02-16T12:22:10.888Z,990.80
2019-02-16T12:23:11.972Z,990.78
2019-02-16T12:24:10.881Z,990.77
2019-02-16T12:25:10.869Z,990.77
2019-02-16T12:26:10.819Z,990.75
2019-02-16T12:27:10.849Z,990.75
2019-02-16T12:28:10.800Z,990.70